createdAt,value
2022-11-17T00:01:27.847Z,15.90
2022-11-17T00:04:30.369Z,16.10
2022-11-17T00:07:32.640Z,15.32
2022-11-17T00:10:35.141Z,15.82
2022-11-17T00:13:56.215Z,14.82
2022-11-17T00:17:12.047Z,17.08
2022-11-17T00:20:33.866Z,15.07
2022-11-17T00:23:50.519Z,15.40
2022-11-17T00:27:01.904Z,13.30
2022-11-17T00:30:06.028Z,13.70
2022-11-17T00:33:27.391Z,13.60
2022-11-17T00:36:29.934Z,13.48
2022-11-17T00:39:32.787Z,15.15
2022-11-17T00:42:35.227Z,14.95
2022-11-17T00:45:37.440Z,15.48
2022-11-17T00:48:39.930Z,14.68
2022-11-17T00:51:42.754Z,15.07
2022-11-17T00:54:45.257Z,15.05
2022-11-17T00:57:47.437Z,15.50
2022-11-17T01:00:49.950Z,15.00
2022-11-17T01:04:02.810Z,15.73
2022-11-17T01:07:05.787Z,14.70
2022-11-17T01:10:08.585Z,13.93
2022-11-17T01:13:11.197Z,14.52
2022-11-17T01:16:18.841Z,14.57
2022-11-17T01:19:23.111Z,15.47
2022-11-17T01:22:25.298Z,16.75
2022-11-17T01:25:27.742Z,15.38
2022-11-17T01:28:29.977Z,15.15
2022-11-17T01:31:35.512Z,14.80
2022-11-17T01:34:37.711Z,14.52
2022-11-17T01:37:40.188Z,15.88
2022-11-17T01:40:42.320Z,15.57
2022-11-17T01:43:56.647Z,15.75
2022-11-17T01:47:01.037Z,14.07
2022-11-17T01:50:10.076Z,14.63
2022-11-17T01:53:17.327Z,12.57
2022-11-17T01:56:27.216Z,13.75
2022-11-17T01:59:35.930Z,14.63
2022-11-17T02:02:40.931Z,14.00
2022-11-17T02:05:58.047Z,13.85
2022-11-17T02:09:03.696Z,14.77
2022-11-17T02:12:09.089Z,12.60
2022-11-17T02:15:11.693Z,13.73
2022-11-17T02:18:15.822Z,14.20
2022-11-17T02:21:49.291Z,14.13
2022-11-17T02:25:22.979Z,14.85
2022-11-17T02:28:31.074Z,14.27
2022-11-17T02:31:46.484Z,15.00
2022-11-17T02:35:06.169Z,14.90
2022-11-17T02:38:25.612Z,15.98
2022-11-17T02:41:41.086Z,15.48
2022-11-17T02:44:49.738Z,14.43
2022-11-17T02:50:58.926Z,13.62
2022-11-17T02:54:02.173Z,13.38
2022-11-17T02:57:04.499Z,13.70
2022-11-17T03:00:18.956Z,15.25
2022-11-17T03:03:44.751Z,14.25
2022-11-17T03:07:14.511Z,15.15
2022-11-17T03:10:51.455Z,15.98
2022-11-17T03:14:20.424Z,13.88
2022-11-17T03:17:32.955Z,14.80
2022-11-17T03:21:01.213Z,14.40
2022-11-17T03:24:12.863Z,14.30
2022-11-17T03:27:23.915Z,15.32
2022-11-17T03:30:30.866Z,14.87
2022-11-17T03:33:39.167Z,15.05
2022-11-17T03:36:45.770Z,14.90
2022-11-17T03:39:57.449Z,14.95
2022-11-17T03:43:05.041Z,15.63
2022-11-17T03:46:13.062Z,14.35
2022-11-17T03:49:37.527Z,15.60
2022-11-17T03:52:41.376Z,14.05
2022-11-17T03:55:55.640Z,13.65
2022-11-17T03:59:03.126Z,13.82
2022-11-17T04:02:05.458Z,13.13
2022-11-17T04:05:09.043Z,15.13
2022-11-17T04:08:11.201Z,14.45
2022-11-17T04:11:32.248Z,13.90
2022-11-17T04:14:52.798Z,13.98
2022-11-17T04:17:55.852Z,15.60
2022-11-17T04:20:57.995Z,12.32
2022-11-17T04:24:00.498Z,14.15
2022-11-17T04:27:21.401Z,14.55
2022-11-17T04:30:23.899Z,13.95
2022-11-17T04:33:26.007Z,14.48
2022-11-17T04:36:31.596Z,13.45
2022-11-17T04:39:34.133Z,12.95
2022-11-17T04:42:36.637Z,13.77
2022-11-17T04:45:38.817Z,12.30
2022-11-17T04:48:41.338Z,13.00
2022-11-17T04:51:43.613Z,13.65
2022-11-17T04:54:46.092Z,13.82
2022-11-17T04:57:48.268Z,13.70
2022-11-17T05:00:50.770Z,13.70
2022-11-17T05:03:55.552Z,13.65
2022-11-17T05:06:58.110Z,14.43
2022-11-17T05:10:01.207Z,15.25
2022-11-17T05:13:22.136Z,14.23
2022-11-17T05:16:43.103Z,13.52
2022-11-17T05:19:47.291Z,14.27
2022-11-17T05:23:08.199Z,14.27
2022-11-17T05:26:10.936Z,13.27
2022-11-17T05:29:16.126Z,14.85
2022-11-17T05:32:19.059Z,14.82
2022-11-17T05:35:21.290Z,13.45
2022-11-17T05:38:25.249Z,13.48
2022-11-17T05:41:28.795Z,13.00
2022-11-17T05:44:31.382Z,13.62
2022-11-17T05:47:33.482Z,13.57
2022-11-17T05:50:36.082Z,14.40
2022-11-17T05:53:38.659Z,14.90
2022-11-17T05:56:49.755Z,13.62
2022-11-17T05:59:57.661Z,13.80
2022-11-17T06:03:05.574Z,14.52
2022-11-17T06:06:08.825Z,15.02
2022-11-17T06:09:11.831Z,13.40
2022-11-17T06:12:15.309Z,13.32
2022-11-17T06:15:18.104Z,14.23
2022-11-17T06:18:25.361Z,13.38
2022-11-17T06:21:43.269Z,14.20
2022-11-17T06:24:50.477Z,13.57
2022-11-17T06:27:53.889Z,13.48
2022-11-17T06:30:57.252Z,12.50
2022-11-17T06:34:02.640Z,12.25
2022-11-17T06:37:05.351Z,12.40
2022-11-17T06:40:08.473Z,12.82
2022-11-17T06:43:11.203Z,14.02
2022-11-17T06:46:13.406Z,13.68
2022-11-17T06:49:17.463Z,13.68
2022-11-17T06:52:19.712Z,14.45
2022-11-17T06:55:22.294Z,13.80
2022-11-17T06:58:24.579Z,13.27
2022-11-17T07:01:27.321Z,12.85
2022-11-17T07:04:29.753Z,13.73
2022-11-17T07:07:34.443Z,13.68
2022-11-17T07:10:39.079Z,13.85
2022-11-17T07:13:41.625Z,13.07
2022-11-17T07:16:43.841Z,12.63
2022-11-17T07:19:46.346Z,14.40
2022-11-17T07:22:48.705Z,13.27
2022-11-17T07:25:53.233Z,14.43
2022-11-17T07:28:55.531Z,12.00
2022-11-17T07:31:58.114Z,13.52
2022-11-17T07:35:02.149Z,12.13
2022-11-17T07:38:06.055Z,13.70
2022-11-17T07:41:10.445Z,14.15
2022-11-17T07:44:13.591Z,13.10
2022-11-17T07:47:16.567Z,12.23
2022-11-17T07:50:21.335Z,13.60
2022-11-17T07:53:26.593Z,11.70
2022-11-17T07:56:32.815Z,12.05
2022-11-17T07:59:35.508Z,12.77
2022-11-17T08:02:38.798Z,12.37
2022-11-17T08:05:43.603Z,13.18
2022-11-17T08:08:48.457Z,13.68
2022-11-17T08:11:51.903Z,12.48
2022-11-17T08:14:54.165Z,13.25
2022-11-17T08:17:58.678Z,11.70
2022-11-17T08:21:06.499Z,12.55
2022-11-17T08:24:09.532Z,11.95
2022-11-17T08:27:11.995Z,11.55
2022-11-17T08:30:15.045Z,12.35
2022-11-17T08:33:17.373Z,11.10
2022-11-17T08:36:19.809Z,10.40
2022-11-17T08:39:22.014Z,10.40
2022-11-17T08:42:25.040Z,10.10
2022-11-17T08:45:27.554Z,9.40
2022-11-17T08:48:31.765Z,9.65
2022-11-17T08:51:35.450Z,10.60
2022-11-17T08:54:39.185Z,10.00
2022-11-17T08:57:42.154Z,10.98
2022-11-17T09:00:47.611Z,9.15
2022-11-17T09:03:50.119Z,10.52
2022-11-17T09:34:48.573Z,10.98
2022-11-17T09:37:51.207Z,10.60
2022-11-17T09:40:55.234Z,9.77
2022-11-17T09:44:12.988Z,11.12
2022-11-17T09:47:47.851Z,9.65
2022-11-17T09:50:53.944Z,9.95
2022-11-17T09:54:32.862Z,9.60
2022-11-17T09:57:44.631Z,10.02
2022-11-17T10:01:02.714Z,8.55
2022-11-17T10:08:59.031Z,8.73
2022-11-17T10:12:16.679Z,8.18
2022-11-17T10:15:26.052Z,7.50
2022-11-17T10:18:38.137Z,7.75
2022-11-17T10:21:40.714Z,7.80
2022-11-17T10:24:50.662Z,8.55
2022-11-17T10:27:54.520Z,8.13
2022-11-17T10:31:00.791Z,7.93
2022-11-17T10:34:03.095Z,7.12
2022-11-17T10:37:15.291Z,7.57
2022-11-17T10:40:58.191Z,7.65
2022-11-17T10:44:14.934Z,6.72
2022-11-17T10:47:29.353Z,6.00
2022-11-17T10:50:33.985Z,6.95
2022-11-17T10:53:46.134Z,7.95
2022-11-17T11:01:11.526Z,7.28
2022-11-17T11:04:28.621Z,7.05
2022-11-17T11:07:31.007Z,7.07
2022-11-17T11:10:35.467Z,6.43
2022-11-17T11:13:56.134Z,6.82
2022-11-17T11:16:59.509Z,7.07
2022-11-17T11:20:02.370Z,7.25
2022-11-17T11:23:14.580Z,7.10
2022-11-17T11:26:38.505Z,6.37
2022-11-17T11:30:00.874Z,6.22
2022-11-17T11:33:30.650Z,6.28
2022-11-17T11:36:43.900Z,6.12
2022-11-17T11:39:57.295Z,6.28
2022-11-17T11:43:11.692Z,6.43
2022-11-17T11:46:43.097Z,5.40
2022-11-17T11:49:57.215Z,6.12
2022-11-17T11:53:14.065Z,6.40
2022-11-17T11:56:27.334Z,5.65
2022-11-17T11:59:51.048Z,5.60
2022-11-17T12:03:30.817Z,5.47
2022-11-17T12:07:30.831Z,5.87
2022-11-17T12:10:49.345Z,5.55
2022-11-17T12:13:57.063Z,5.12
2022-11-17T12:17:13.243Z,5.37
2022-11-17T12:20:56.209Z,6.10
2022-11-17T12:24:18.730Z,6.00
2022-11-17T12:27:33.431Z,6.18
2022-11-17T12:30:38.315Z,6.07
2022-11-17T12:33:52.917Z,6.20
2022-11-17T12:37:13.235Z,6.80
2022-11-17T12:40:37.680Z,5.82
2022-11-17T12:43:40.168Z,5.72
2022-11-17T12:46:47.985Z,5.75
2022-11-17T12:49:59.273Z,5.30
2022-11-17T12:53:13.900Z,5.47
2022-11-17T12:56:39.372Z,5.03
2022-11-17T13:00:07.663Z,5.65
2022-11-17T13:03:22.126Z,5.43
2022-11-17T13:06:40.000Z,5.55
2022-11-17T13:09:42.233Z,5.00
2022-11-17T13:12:44.835Z,5.80
2022-11-17T13:15:56.841Z,5.35
2022-11-17T13:19:31.805Z,5.57
2022-11-17T13:22:39.046Z,6.35
2022-11-17T13:25:44.593Z,6.72
2022-11-17T13:28:48.333Z,6.30
2022-11-17T13:32:15.197Z,6.53
2022-11-17T13:35:23.649Z,6.95
2022-11-17T13:38:26.372Z,6.50
2022-11-17T13:41:37.529Z,6.37
2022-11-17T13:44:40.175Z,6.43
2022-11-17T13:47:45.709Z,6.93
2022-11-17T13:50:49.109Z,6.87
2022-11-17T13:54:04.336Z,7.80
2022-11-17T13:57:08.258Z,7.82
2022-11-17T14:00:17.186Z,7.57
2022-11-17T14:03:41.609Z,7.20
2022-11-17T14:06:56.604Z,7.47
2022-11-17T14:10:21.489Z,6.95
2022-11-17T14:13:29.971Z,7.37
2022-11-17T14:19:38.935Z,7.53
2022-11-17T14:22:41.417Z,7.80
2022-11-17T14:25:46.139Z,7.47
2022-11-17T14:28:49.930Z,8.30
2022-11-17T14:31:52.054Z,7.55
2022-11-17T14:34:54.514Z,7.80
2022-11-17T14:37:56.819Z,7.68
2022-11-17T14:40:59.217Z,7.43
2022-11-17T14:44:01.323Z,8.55
2022-11-17T14:47:03.845Z,7.50
2022-11-17T14:50:07.496Z,8.10
2022-11-17T14:53:09.977Z,8.48
2022-11-17T14:56:15.476Z,9.15
2022-11-17T14:59:18.255Z,9.20
2022-11-17T15:02:20.504Z,8.38
2022-11-17T15:05:23.114Z,8.20
2022-11-17T15:08:25.408Z,8.65
2022-11-17T15:11:33.944Z,8.18
2022-11-17T15:14:40.523Z,7.78
2022-11-17T15:17:43.112Z,7.75
2022-11-17T15:20:45.459Z,8.50
2022-11-17T15:23:48.166Z,9.77
2022-11-17T15:26:50.527Z,9.30
2022-11-17T15:29:53.527Z,8.63
2022-11-17T15:32:55.740Z,9.35
2022-11-17T15:36:02.263Z,8.35
2022-11-17T15:39:04.936Z,9.77
2022-11-17T15:42:07.963Z,9.40
2022-11-17T15:45:11.413Z,10.55
2022-11-17T15:48:18.590Z,9.18
2022-11-17T15:51:23.413Z,10.05
2022-11-17T15:54:27.778Z,10.52
2022-11-17T15:57:30.269Z,9.48
2022-11-17T16:00:33.900Z,10.20
2022-11-17T16:03:37.780Z,10.85
2022-11-17T16:06:52.553Z,12.07
2022-11-17T16:09:58.855Z,11.02
2022-11-17T16:13:01.082Z,10.90
2022-11-17T16:16:04.454Z,11.30
2022-11-17T16:19:07.360Z,11.38
2022-11-17T16:22:09.881Z,11.98
2022-11-17T16:25:12.473Z,11.70
2022-11-17T16:28:16.628Z,12.15
2022-11-17T16:31:21.552Z,11.93
2022-11-17T16:34:24.474Z,13.45
2022-11-17T16:37:26.711Z,14.00
2022-11-17T16:40:29.312Z,14.85
2022-11-17T16:43:31.506Z,14.52
2022-11-17T16:46:34.020Z,14.40
2022-11-17T16:49:36.399Z,15.13
2022-11-17T16:52:38.995Z,12.80
2022-11-17T16:55:41.172Z,14.15
2022-11-17T16:58:43.780Z,13.10
2022-11-17T17:01:45.982Z,12.48
2022-11-17T17:04:48.468Z,12.80
2022-11-17T17:07:51.033Z,14.65
2022-11-17T17:10:53.486Z,16.15
2022-11-17T17:13:56.664Z,15.40
2022-11-17T17:16:59.186Z,14.60
2022-11-17T17:20:01.347Z,13.50
2022-11-17T17:23:03.894Z,14.35
2022-11-17T17:26:12.008Z,14.13
2022-11-17T17:29:14.673Z,12.75
2022-11-17T17:32:17.167Z,14.05
2022-11-17T17:35:19.710Z,14.38
2022-11-17T17:38:21.912Z,14.52
2022-11-17T17:41:33.058Z,15.27
2022-11-17T17:44:35.253Z,14.63
2022-11-17T17:47:37.788Z,15.32
2022-11-17T17:50:40.301Z,15.15
2022-11-17T17:53:43.153Z,14.50
2022-11-17T17:56:46.021Z,14.07
2022-11-17T17:59:48.448Z,14.57
2022-11-17T18:02:50.789Z,14.85
2022-11-17T18:05:53.349Z,14.30
2022-11-17T18:08:59.547Z,14.45
2022-11-17T18:12:04.579Z,13.02
2022-11-17T18:15:07.447Z,13.98
2022-11-17T18:18:09.934Z,13.57
2022-11-17T18:21:15.570Z,13.43
2022-11-17T18:24:18.399Z,13.75
2022-11-17T18:27:20.643Z,14.43
2022-11-17T18:30:23.372Z,12.50
2022-11-17T18:33:25.652Z,15.82
2022-11-17T18:36:29.175Z,15.70
2022-11-17T18:39:32.810Z,15.85
2022-11-17T18:42:35.249Z,17.50
2022-11-17T18:45:38.442Z,19.10
2022-11-17T18:48:43.525Z,18.15
2022-11-17T18:51:46.238Z,18.12
2022-11-17T18:54:52.101Z,16.45
2022-11-17T18:57:54.498Z,15.65
2022-11-17T19:00:58.274Z,16.98
2022-11-17T19:04:01.091Z,16.58
2022-11-17T19:07:03.840Z,16.12
2022-11-17T19:10:06.540Z,14.65
2022-11-17T19:13:09.137Z,15.48
2022-11-17T19:16:14.464Z,15.73
2022-11-17T19:19:17.308Z,15.82
2022-11-17T19:22:20.182Z,15.30
2022-11-17T19:25:23.846Z,15.32
2022-11-17T19:28:26.046Z,15.13
2022-11-17T19:31:29.093Z,14.65
2022-11-17T19:34:31.292Z,14.38
2022-11-17T19:37:33.934Z,14.85
2022-11-17T19:40:36.128Z,14.32
2022-11-17T19:43:44.523Z,15.38
2022-11-17T19:49:49.992Z,14.85
2022-11-17T19:52:53.020Z,14.43
2022-11-17T19:55:57.102Z,17.17
2022-11-17T19:58:59.375Z,16.48
2022-11-17T20:02:01.936Z,15.82
2022-11-17T20:05:10.537Z,15.98
2022-11-17T20:08:13.136Z,16.08
2022-11-17T20:11:18.761Z,16.02
2022-11-17T20:14:21.654Z,15.40
2022-11-17T20:17:25.125Z,16.00
2022-11-17T20:20:27.357Z,15.65
2022-11-17T20:23:32.629Z,15.80
2022-11-17T20:26:36.163Z,15.00
2022-11-17T20:29:38.565Z,14.93
2022-11-17T20:32:40.792Z,16.05
2022-11-17T20:35:43.309Z,17.15
2022-11-17T20:38:50.575Z,16.85
2022-11-17T20:41:53.075Z,16.40
2022-11-17T20:44:55.287Z,16.20
2022-11-17T20:47:57.856Z,16.77
2022-11-17T20:51:02.862Z,16.65
2022-11-17T20:54:05.455Z,17.60
2022-11-17T20:57:10.777Z,17.58
2022-11-17T21:00:13.827Z,17.77
2022-11-17T21:03:16.056Z,16.15
2022-11-17T21:06:19.735Z,16.55
2022-11-17T21:09:22.163Z,17.50
2022-11-17T21:12:24.692Z,16.75
2022-11-17T21:15:26.919Z,17.35
2022-11-17T21:18:29.480Z,18.10
2022-11-17T21:21:31.776Z,18.17
2022-11-17T21:24:34.265Z,16.42
2022-11-17T21:27:36.396Z,16.02
2022-11-17T21:30:38.875Z,17.52
2022-11-17T21:33:42.268Z,16.95
2022-11-17T21:36:44.862Z,17.42
2022-11-17T21:39:47.081Z,17.12
2022-11-17T21:42:49.520Z,16.90
2022-11-17T21:45:51.724Z,17.05
2022-11-17T21:48:56.117Z,17.83
2022-11-17T21:51:58.293Z,17.17
2022-11-17T21:55:00.934Z,17.15
2022-11-17T21:58:03.121Z,16.92
2022-11-17T22:01:11.509Z,17.33
2022-11-17T22:04:15.850Z,17.80
2022-11-17T22:07:18.121Z,17.48
2022-11-17T22:10:20.714Z,18.58
2022-11-17T22:13:22.900Z,16.58
2022-11-17T22:16:25.354Z,17.98
2022-11-17T22:19:29.434Z,17.48
2022-11-17T22:22:31.946Z,18.77
2022-11-17T22:25:49.316Z,18.92
2022-11-17T22:28:53.653Z,17.45
2022-11-17T22:31:56.137Z,18.70
2022-11-17T22:35:01.427Z,18.30
2022-11-17T22:38:03.650Z,19.50
2022-11-17T22:41:07.388Z,18.55
2022-11-17T22:44:13.746Z,18.08
2022-11-17T22:47:16.314Z,18.55
2022-11-17T22:50:18.474Z,18.55
2022-11-17T22:53:21.231Z,18.83
2022-11-17T22:56:23.392Z,18.80
2022-11-17T22:59:28.023Z,18.23
2022-11-17T23:02:30.238Z,17.00
2022-11-17T23:05:32.725Z,19.20
2022-11-17T23:08:34.868Z,19.23
2022-11-17T23:11:38.731Z,21.23
2022-11-17T23:14:41.073Z,18.95
2022-11-17T23:17:43.599Z,18.58
2022-11-17T23:20:45.772Z,19.20
2022-11-17T23:23:48.631Z,16.98
2022-11-17T23:26:50.787Z,18.60
2022-11-17T23:29:53.811Z,16.98
2022-11-17T23:32:56.105Z,19.02
2022-11-17T23:35:58.657Z,18.45
2022-11-17T23:39:00.751Z,18.45
2022-11-17T23:42:03.289Z,19.67
2022-11-17T23:45:06.343Z,17.67
2022-11-17T23:48:08.817Z,17.55
2022-11-17T23:51:19.569Z,17.85
2022-11-17T23:54:22.020Z,18.05
2022-11-17T23:57:24.305Z,18.65
